sensor_id;sensor_type;location;lat;lon;timestamp;pressure;altitude;pressure_sealevel;temperature;humidity
6038;BME280;3047;42.600;23.470;2022-07-23T00:00:22;93403.94;;;23.53;53.48
6038;BME280;3047;42.600;23.470;2022-07-23T00:02:49;93407.94;;;23.46;53.62
6038;BME280;3047;42.600;23.470;2022-07-23T00:05:15;93406.81;;;23.37;54.76
6038;BME280;3047;42.600;23.470;2022-07-23T00:07:42;93412.94;;;23.36;54.15
6038;BME280;3047;42.600;23.470;2022-07-23T00:10:10;93406.81;;;23.37;54.47
6038;BME280;3047;42.600;23.470;2022-07-23T00:12:38;93412.56;;;23.30;55.26
6038;BME280;3047;42.600;23.470;2022-07-23T00:15:06;93368.50;;;22.98;54.95
6038;BME280;3047;42.600;23.470;2022-07-23T00:17:34;93417.72;;;23.30;54.72
6038;BME280;3047;42.600;23.470;2022-07-23T00:20:01;93411.97;;;23.26;54.43
6038;BME280;3047;42.600;23.470;2022-07-23T00:22:27;93362.28;;;23.00;54.52
6038;BME280;3047;42.600;23.470;2022-07-23T00:24:54;93412.66;;;23.28;54.33
6038;BME280;3047;42.600;23.470;2022-07-23T00:27:23;93411.84;;;23.28;54.21
6038;BME280;3047;42.600;23.470;2022-07-23T00:29:49;93406.13;;;23.35;53.93
6038;BME280;3047;42.600;23.470;2022-07-23T00:32:16;93415.22;;;23.28;54.18
6038;BME280;3047;42.600;23.470;2022-07-23T00:34:43;93414.41;;;23.28;54.55
6038;BME280;3047;42.600;23.470;2022-07-23T00:37:10;93420.34;;;23.17;55.41
6038;BME280;3047;42.600;23.470;2022-07-23T00:39:36;93370.16;;;22.86;56.84
6038;BME280;3047;42.600;23.470;2022-07-23T00:42:03;93408.50;;;23.14;57.48
6038;BME280;3047;42.600;23.470;2022-07-23T00:44:31;93412.50;;;23.18;57.07
6038;BME280;3047;42.600;23.470;2022-07-23T00:46:58;93407.19;;;23.09;55.77
6038;BME280;3047;42.600;23.470;2022-07-23T00:49:27;93384.66;;;23.00;56.64
6038;BME280;3047;42.600;23.470;2022-07-23T00:51:54;93411.84;;;23.04;58.65
6038;BME280;3047;42.600;23.470;2022-07-23T00:54:23;93402.22;;;22.82;58.49
6038;BME280;3047;42.600;23.470;2022-07-23T00:56:50;93364.19;;;22.61;58.19
6038;BME280;3047;42.600;23.470;2022-07-23T00:59:17;93409.97;;;22.82;57.55
6038;BME280;3047;42.600;23.470;2022-07-23T01:01:45;93409.00;;;22.59;57.90
6038;BME280;3047;42.600;23.470;2022-07-23T01:04:14;93411.91;;;22.41;58.74
6038;BME280;3047;42.600;23.470;2022-07-23T01:06:43;93405.44;;;22.36;58.92
6038;BME280;3047;42.600;23.470;2022-07-23T01:09:11;93403.59;;;22.25;59.63
6038;BME280;3047;42.600;23.470;2022-07-23T01:11:38;93407.13;;;22.24;59.67
6038;BME280;3047;42.600;23.470;2022-07-23T01:14:09;93407.31;;;22.21;59.10
6038;BME280;3047;42.600;23.470;2022-07-23T01:16:36;93403.94;;;22.20;59.22
6038;BME280;3047;42.600;23.470;2022-07-23T01:19:04;93403.59;;;22.25;59.10
6038;BME280;3047;42.600;23.470;2022-07-23T01:21:35;93387.56;;;22.21;59.44
6038;BME280;3047;42.600;23.470;2022-07-23T01:24:04;93407.94;;;22.25;59.53
6038;BME280;3047;42.600;23.470;2022-07-23T01:26:31;93396.28;;;22.19;59.39
6038;BME280;3047;42.600;23.470;2022-07-23T01:28:58;93393.63;;;22.20;59.56
6038;BME280;3047;42.600;23.470;2022-07-23T01:31:24;93396.59;;;22.27;59.07
6038;BME280;3047;42.600;23.470;2022-07-23T01:33:51;93390.53;;;22.28;59.04
6038;BME280;3047;42.600;23.470;2022-07-23T01:36:18;93377.88;;;22.25;59.79
6038;BME280;3047;42.600;23.470;2022-07-23T01:38:45;93364.72;;;22.04;59.61
6038;BME280;3047;42.600;23.470;2022-07-23T01:41:13;93386.44;;;22.13;59.71
6038;BME280;3047;42.600;23.470;2022-07-23T01:43:40;93385.06;;;22.07;60.45
6038;BME280;3047;42.600;23.470;2022-07-23T01:46:07;93379.22;;;22.05;61.13
6038;BME280;3047;42.600;23.470;2022-07-23T01:48:34;93385.16;;;22.06;61.53
6038;BME280;3047;42.600;23.470;2022-07-23T01:51:01;93394.03;;;22.02;61.92
6038;BME280;3047;42.600;23.470;2022-07-23T01:53:28;93397.31;;;21.91;62.59
6038;BME280;3047;42.600;23.470;2022-07-23T01:55:56;93394.44;;;21.83;62.16
6038;BME280;3047;42.600;23.470;2022-07-23T01:58:24;93387.16;;;21.77;62.32
6038;BME280;3047;42.600;23.470;2022-07-23T02:00:51;93387.66;;;21.82;61.43
6038;BME280;3047;42.600;23.470;2022-07-23T02:03:18;93378.69;;;21.75;61.90
6038;BME280;3047;42.600;23.470;2022-07-23T02:05:44;93395.25;;;21.83;61.66
6038;BME280;3047;42.600;23.470;2022-07-23T02:08:11;93396.81;;;21.86;61.71
6038;BME280;3047;42.600;23.470;2022-07-23T02:10:38;93399.38;;;21.86;62.66
6038;BME280;3047;42.600;23.470;2022-07-23T02:13:05;93388.78;;;21.90;61.82
6038;BME280;3047;42.600;23.470;2022-07-23T02:15:33;93336.53;;;21.64;61.05
6038;BME280;3047;42.600;23.470;2022-07-23T02:18:00;93396.91;;;21.97;61.50
6038;BME280;3047;42.600;23.470;2022-07-23T02:20:26;93395.34;;;21.94;61.16
6038;BME280;3047;42.600;23.470;2022-07-23T02:22:53;93401.31;;;21.95;62.91
6038;BME280;3047;42.600;23.470;2022-07-23T02:25:20;93399.56;;;21.95;63.23
6038;BME280;3047;42.600;23.470;2022-07-23T02:27:47;93404.44;;;22.00;64.57
6038;BME280;3047;42.600;23.470;2022-07-23T02:30:13;93383.13;;;21.85;64.08
6038;BME280;3047;42.600;23.470;2022-07-23T02:32:41;93366.03;;;21.59;64.61
6038;BME280;3047;42.600;23.470;2022-07-23T02:35:08;93399.56;;;21.70;64.93
6038;BME280;3047;42.600;23.470;2022-07-23T02:37:35;93400.91;;;21.63;65.25
6038;BME280;3047;42.600;23.470;2022-07-23T02:40:02;93339.97;;;21.25;65.77
6038;BME280;3047;42.600;23.470;2022-07-23T02:42:29;93390.22;;;21.56;65.59
6038;BME280;3047;42.600;23.470;2022-07-23T02:44:56;93351.06;;;21.13;66.16
6038;BME280;3047;42.600;23.470;2022-07-23T02:47:22;93402.31;;;21.41;65.46
6038;BME280;3047;42.600;23.470;2022-07-23T02:49:50;93403.97;;;21.42;65.46
6038;BME280;3047;42.600;23.470;2022-07-23T02:52:17;93403.06;;;21.43;65.42
6038;BME280;3047;42.600;23.470;2022-07-23T02:54:44;93412.53;;;21.56;67.43
6038;BME280;3047;42.600;23.470;2022-07-23T02:57:10;93403.75;;;21.45;66.79
6038;BME280;3047;42.600;23.470;2022-07-23T02:59:37;93414.03;;;21.45;67.69
6038;BME280;3047;42.600;23.470;2022-07-23T03:02:04;93414.66;;;21.36;67.67
6038;BME280;3047;42.600;23.470;2022-07-23T03:04:31;93417.09;;;21.38;67.58
6038;BME280;3047;42.600;23.470;2022-07-23T03:06:59;93426.06;;;21.18;67.78
6038;BME280;3047;42.600;23.470;2022-07-23T03:09:25;93421.16;;;21.15;68.52
6038;BME280;3047;42.600;23.470;2022-07-23T03:11:52;93425.88;;;21.21;68.42
6038;BME280;3047;42.600;23.470;2022-07-23T03:14:19;93381.63;;;20.90;67.80
6038;BME280;3047;42.600;23.470;2022-07-23T03:16:45;93429.88;;;21.12;68.18
6038;BME280;3047;42.600;23.470;2022-07-23T03:19:12;93426.28;;;21.15;68.62
6038;BME280;3047;42.600;23.470;2022-07-23T03:21:39;93428.31;;;21.10;68.73
6038;BME280;3047;42.600;23.470;2022-07-23T03:24:08;93423.03;;;20.98;68.55
6038;BME280;3047;42.600;23.470;2022-07-23T03:26:35;93424.44;;;20.90;68.64
6038;BME280;3047;42.600;23.470;2022-07-23T03:29:03;93412.81;;;20.84;69.49
6038;BME280;3047;42.600;23.470;2022-07-23T03:31:31;93360.53;;;20.44;69.60
6038;BME280;3047;42.600;23.470;2022-07-23T03:33:58;93353.16;;;20.25;70.36
6038;BME280;3047;42.600;23.470;2022-07-23T03:36:25;93441.81;;;20.72;70.89
6038;BME280;3047;42.600;23.470;2022-07-23T03:38:52;93388.94;;;20.41;71.13
6038;BME280;3047;42.600;23.470;2022-07-23T03:41:20;93417.72;;;20.74;72.05
6038;BME280;3047;42.600;23.470;2022-07-23T03:43:47;93394.72;;;20.59;72.61
6038;BME280;3047;42.600;23.470;2022-07-23T03:46:14;93410.56;;;20.65;73.20
6038;BME280;3047;42.600;23.470;2022-07-23T03:48:41;93440.53;;;20.79;72.91
6038;BME280;3047;42.600;23.470;2022-07-23T03:51:07;93435.69;;;20.74;74.05
6038;BME280;3047;42.600;23.470;2022-07-23T03:53:34;93422.00;;;20.74;74.19
6038;BME280;3047;42.600;23.470;2022-07-23T03:56:01;93437.25;;;20.90;74.95
6038;BME280;3047;42.600;23.470;2022-07-23T03:58:29;93440.94;;;20.86;75.52
6038;BME280;3047;42.600;23.470;2022-07-23T04:00:56;93436.56;;;20.88;76.59
6038;BME280;3047;42.600;23.470;2022-07-23T04:03:22;93397.09;;;20.62;76.41
6038;BME280;3047;42.600;23.470;2022-07-23T04:05:49;93429.22;;;20.82;77.38
6038;BME280;3047;42.600;23.470;2022-07-23T04:08:16;93449.28;;;20.89;77.78
6038;BME280;3047;42.600;23.470;2022-07-23T04:10:42;93448.28;;;20.92;77.92
6038;BME280;3047;42.600;23.470;2022-07-23T04:13:09;93443.25;;;20.90;77.85
6038;BME280;3047;42.600;23.470;2022-07-23T04:15:37;93430.88;;;20.83;78.16
6038;BME280;3047;42.600;23.470;2022-07-23T04:18:04;93406.03;;;20.83;78.95
6038;BME280;3047;42.600;23.470;2022-07-23T04:20:31;93435.59;;;21.03;78.60
6038;BME280;3047;42.600;23.470;2022-07-23T04:22:58;93443.31;;;21.03;78.73
6038;BME280;3047;42.600;23.470;2022-07-23T04:25:24;93444.66;;;21.09;78.12
6038;BME280;3047;42.600;23.470;2022-07-23T04:27:51;93417.06;;;20.98;72.65
6038;BME280;3047;42.600;23.470;2022-07-23T04:30:18;93445.31;;;21.25;74.38
6038;BME280;3047;42.600;23.470;2022-07-23T04:32:46;93430.81;;;21.24;76.15
6038;BME280;3047;42.600;23.470;2022-07-23T04:35:13;93452.56;;;21.33;74.85
6038;BME280;3047;42.600;23.470;2022-07-23T04:37:39;93450.91;;;21.32;74.39
6038;BME280;3047;42.600;23.470;2022-07-23T04:40:07;93449.22;;;21.45;73.84
6038;BME280;3047;42.600;23.470;2022-07-23T04:42:34;93447.91;;;21.52;72.69
6038;BME280;3047;42.600;23.470;2022-07-23T04:45:00;93452.53;;;21.60;70.28
6038;BME280;3047;42.600;23.470;2022-07-23T04:47:29;93442.97;;;21.75;70.30
6038;BME280;3047;42.600;23.470;2022-07-23T04:49:57;93458.34;;;21.89;70.12
6038;BME280;3047;42.600;23.470;2022-07-23T04:52:24;93410.38;;;21.62;70.33
6038;BME280;3047;42.600;23.470;2022-07-23T04:54:51;93393.59;;;21.57;69.01
6038;BME280;3047;42.600;23.470;2022-07-23T04:57:18;93444.03;;;21.97;69.80
6038;BME280;3047;42.600;23.470;2022-07-23T04:59:44;93453.38;;;22.11;69.15
6038;BME280;3047;42.600;23.470;2022-07-23T05:02:11;93453.72;;;22.19;69.26
6038;BME280;3047;42.600;23.470;2022-07-23T05:04:38;93451.16;;;22.32;66.96
6038;BME280;3047;42.600;23.470;2022-07-23T05:07:06;93449.28;;;22.47;67.74
6038;BME280;3047;42.600;23.470;2022-07-23T05:09:33;93447.41;;;22.62;67.42
6038;BME280;3047;42.600;23.470;2022-07-23T05:12:00;93463.03;;;22.71;67.86
6038;BME280;3047;42.600;23.470;2022-07-23T05:14:26;93464.88;;;22.82;65.78
6038;BME280;3047;42.600;23.470;2022-07-23T05:16:54;93421.03;;;22.58;64.98
6038;BME280;3047;42.600;23.470;2022-07-23T05:19:21;93432.03;;;22.73;65.23
6038;BME280;3047;42.600;23.470;2022-07-23T05:21:48;93467.59;;;23.05;65.11
6038;BME280;3047;42.600;23.470;2022-07-23T05:24:16;93462.50;;;23.16;66.47
6038;BME280;3047;42.600;23.470;2022-07-23T05:26:43;93467.50;;;23.30;65.28
6038;BME280;3047;42.600;23.470;2022-07-23T05:29:09;93473.84;;;23.37;64.14
6038;BME280;3047;42.600;23.470;2022-07-23T05:31:36;93436.91;;;23.26;65.45
6038;BME280;3047;42.600;23.470;2022-07-23T05:34:03;93473.81;;;23.50;65.32
6038;BME280;3047;42.600;23.470;2022-07-23T05:36:31;93477.00;;;23.65;64.22
6038;BME280;3047;42.600;23.470;2022-07-23T05:38:58;93454.28;;;23.59;61.76
6038;BME280;3047;42.600;23.470;2022-07-23T05:41:26;93479.25;;;23.82;62.29
6038;BME280;3047;42.600;23.470;2022-07-23T05:43:53;93478.22;;;23.96;63.64
6038;BME280;3047;42.600;23.470;2022-07-23T05:46:19;93478.25;;;24.07;63.48
6038;BME280;3047;42.600;23.470;2022-07-23T05:48:46;93477.75;;;24.13;64.05
6038;BME280;3047;42.600;23.470;2022-07-23T05:51:19;93436.19;;;23.94;63.51
6038;BME280;3047;42.600;23.470;2022-07-23T05:53:46;93457.84;;;24.15;62.50
6038;BME280;3047;42.600;23.470;2022-07-23T05:56:13;93472.75;;;24.34;63.32
6038;BME280;3047;42.600;23.470;2022-07-23T05:58:41;93448.56;;;24.24;62.55
6038;BME280;3047;42.600;23.470;2022-07-23T06:01:08;93458.41;;;24.30;61.29
6038;BME280;3047;42.600;23.470;2022-07-23T06:03:37;93483.13;;;24.46;63.30
6038;BME280;3047;42.600;23.470;2022-07-23T06:06:04;93446.81;;;24.25;61.36
6038;BME280;3047;42.600;23.470;2022-07-23T06:08:34;93486.28;;;24.49;60.50
6038;BME280;3047;42.600;23.470;2022-07-23T06:11:01;93486.88;;;24.53;62.47
6038;BME280;3047;42.600;23.470;2022-07-23T06:13:28;93482.19;;;24.58;60.69
6038;BME280;3047;42.600;23.470;2022-07-23T06:15:56;93480.53;;;24.57;61.51
6038;BME280;3047;42.600;23.470;2022-07-23T06:18:23;93479.59;;;24.69;62.55
6038;BME280;3047;42.600;23.470;2022-07-23T06:20:50;93475.59;;;24.76;60.46
6038;BME280;3047;42.600;23.470;2022-07-23T06:23:16;93463.06;;;24.72;61.35
6038;BME280;3047;42.600;23.470;2022-07-23T06:25:43;93476.28;;;24.89;61.59
6038;BME280;3047;42.600;23.470;2022-07-23T06:28:13;93475.69;;;24.97;61.35
6038;BME280;3047;42.600;23.470;2022-07-23T06:30:40;93469.56;;;24.98;61.30
6038;BME280;3047;42.600;23.470;2022-07-23T06:33:12;93471.94;;;25.01;59.66
6038;BME280;3047;42.600;23.470;2022-07-23T06:35:42;93472.75;;;25.02;59.91
6038;BME280;3047;42.600;23.470;2022-07-23T06:38:09;93473.09;;;25.08;59.26
6038;BME280;3047;42.600;23.470;2022-07-23T06:40:36;93475.59;;;25.10;60.93
6038;BME280;3047;42.600;23.470;2022-07-23T06:43:03;93484.00;;;25.23;59.89
6038;BME280;3047;42.600;23.470;2022-07-23T06:45:29;93472.84;;;25.23;59.79
6038;BME280;3047;42.600;23.470;2022-07-23T06:47:56;93476.84;;;25.27;60.40
6038;BME280;3047;42.600;23.470;2022-07-23T06:50:24;93454.97;;;25.20;61.17
6038;BME280;3047;42.600;23.470;2022-07-23T06:52:51;93476.22;;;25.34;60.55
6038;BME280;3047;42.600;23.470;2022-07-23T06:55:18;93473.03;;;25.42;59.58
6038;BME280;3047;42.600;23.470;2022-07-23T06:57:44;93477.59;;;25.50;59.74
6038;BME280;3047;42.600;23.470;2022-07-23T07:00:12;93473.56;;;25.57;59.83
6038;BME280;3047;42.600;23.470;2022-07-23T07:02:38;93421.59;;;25.28;59.36
6038;BME280;3047;42.600;23.470;2022-07-23T07:05:06;93474.34;;;25.69;59.49
6038;BME280;3047;42.600;23.470;2022-07-23T07:07:34;93470.22;;;25.77;58.92
6038;BME280;3047;42.600;23.470;2022-07-23T07:10:01;93408.72;;;25.49;60.50
6038;BME280;3047;42.600;23.470;2022-07-23T07:12:28;93454.06;;;25.85;58.83
6038;BME280;3047;42.600;23.470;2022-07-23T07:14:55;93457.97;;;26.00;59.74
6038;BME280;3047;42.600;23.470;2022-07-23T07:17:22;93451.59;;;26.04;58.18
6038;BME280;3047;42.600;23.470;2022-07-23T07:19:48;93456.44;;;26.19;59.69
6038;BME280;3047;42.600;23.470;2022-07-23T07:22:15;93459.09;;;26.28;60.05
6038;BME280;3047;42.600;23.470;2022-07-23T07:24:43;93455.47;;;26.41;59.21
6038;BME280;3047;42.600;23.470;2022-07-23T07:27:10;93457.75;;;26.55;60.30
6038;BME280;3047;42.600;23.470;2022-07-23T07:29:37;93459.41;;;26.66;57.76
6038;BME280;3047;42.600;23.470;2022-07-23T07:32:04;93394.09;;;26.41;56.53
6038;BME280;3047;42.600;23.470;2022-07-23T07:34:31;93454.06;;;26.98;59.78
6038;BME280;3047;42.600;23.470;2022-07-23T07:36:58;93449.34;;;27.13;58.80
6038;BME280;3047;42.600;23.470;2022-07-23T07:39:24;93446.25;;;27.38;57.53
6038;BME280;3047;42.600;23.470;2022-07-23T07:41:52;93430.00;;;27.46;54.46
6038;BME280;3047;42.600;23.470;2022-07-23T07:44:19;93444.34;;;27.69;54.11
6038;BME280;3047;42.600;23.470;2022-07-23T07:46:46;93402.28;;;27.56;54.53
6038;BME280;3047;42.600;23.470;2022-07-23T07:49:13;93426.47;;;27.85;53.22
6038;BME280;3047;42.600;23.470;2022-07-23T07:51:39;93441.72;;;28.18;53.01
6038;BME280;3047;42.600;23.470;2022-07-23T07:54:06;93403.06;;;28.05;54.07
6038;BME280;3047;42.600;23.470;2022-07-23T07:56:33;93442.56;;;28.55;50.60
6038;BME280;3047;42.600;23.470;2022-07-23T07:59:01;93444.38;;;28.82;49.65
6038;BME280;3047;42.600;23.470;2022-07-23T08:01:27;93457.03;;;29.05;48.18
6038;BME280;3047;42.600;23.470;2022-07-23T08:03:54;93425.59;;;29.16;46.51
6038;BME280;3047;42.600;23.470;2022-07-23T08:06:21;93454.66;;;29.57;45.80
6038;BME280;3047;42.600;23.470;2022-07-23T08:08:48;93439.31;;;29.72;46.02
6038;BME280;3047;42.600;23.470;2022-07-23T08:11:15;93446.53;;;29.96;42.94
6038;BME280;3047;42.600;23.470;2022-07-23T08:13:42;93428.41;;;30.12;42.15
6038;BME280;3047;42.600;23.470;2022-07-23T08:16:11;93437.56;;;30.42;41.91
6038;BME280;3047;42.600;23.470;2022-07-23T08:18:38;93424.44;;;30.52;42.19
6038;BME280;3047;42.600;23.470;2022-07-23T08:21:04;93441.72;;;30.79;40.23
6038;BME280;3047;42.600;23.470;2022-07-23T08:23:31;93403.03;;;30.74;39.67
6038;BME280;3047;42.600;23.470;2022-07-23T08:25:58;93432.88;;;31.22;39.31
6038;BME280;3047;42.600;23.470;2022-07-23T08:28:26;93432.94;;;31.39;39.74
6038;BME280;3047;42.600;23.470;2022-07-23T08:30:53;93435.06;;;31.43;39.45
6038;BME280;3047;42.600;23.470;2022-07-23T08:33:21;93425.63;;;31.50;39.42
6038;BME280;3047;42.600;23.470;2022-07-23T08:35:48;93373.56;;;31.33;38.96
6038;BME280;3047;42.600;23.470;2022-07-23T08:38:17;93406.25;;;31.86;38.90
6038;BME280;3047;42.600;23.470;2022-07-23T08:40:45;93419.44;;;32.00;39.25
6038;BME280;3047;42.600;23.470;2022-07-23T08:43:15;93400.03;;;31.95;37.64
6038;BME280;3047;42.600;23.470;2022-07-23T08:45:44;93406.53;;;32.07;35.34
6038;BME280;3047;42.600;23.470;2022-07-23T08:48:15;93383.69;;;32.01;35.28
6038;BME280;3047;42.600;23.470;2022-07-23T08:50:45;93423.78;;;32.49;36.13
6038;BME280;3047;42.600;23.470;2022-07-23T08:53:12;93390.47;;;32.51;35.54
6038;BME280;3047;42.600;23.470;2022-07-23T08:55:39;93443.41;;;33.09;34.81
6038;BME280;3047;42.600;23.470;2022-07-23T08:58:06;93432.75;;;33.18;33.94
6038;BME280;3047;42.600;23.470;2022-07-23T09:00:33;93436.19;;;33.42;34.93
6038;BME280;3047;42.600;23.470;2022-07-23T09:03:00;93446.84;;;33.71;33.29
6038;BME280;3047;42.600;23.470;2022-07-23T09:05:27;93448.66;;;33.71;34.25
6038;BME280;3047;42.600;23.470;2022-07-23T09:08:10;93380.44;;;33.33;32.85
6038;BME280;3047;42.600;23.470;2022-07-23T09:10:51;93439.56;;;33.82;32.08
6038;BME280;3047;42.600;23.470;2022-07-23T09:13:28;93418.94;;;33.79;31.91
6038;BME280;3047;42.600;23.470;2022-07-23T09:15:57;93438.91;;;34.03;31.15
6038;BME280;3047;42.600;23.470;2022-07-23T09:18:45;93430.41;;;34.24;30.59
6038;BME280;3047;42.600;23.470;2022-07-23T09:21:20;93430.31;;;34.32;31.96
6038;BME280;3047;42.600;23.470;2022-07-23T09:23:52;93428.78;;;34.37;31.03
6038;BME280;3047;42.600;23.470;2022-07-23T09:26:31;93433.47;;;34.42;32.02
6038;BME280;3047;42.600;23.470;2022-07-23T09:29:01;93425.28;;;34.60;29.67
6038;BME280;3047;42.600;23.470;2022-07-23T09:31:41;93430.09;;;34.56;29.27
6038;BME280;3047;42.600;23.470;2022-07-23T09:34:14;93429.72;;;34.59;30.49
6038;BME280;3047;42.600;23.470;2022-07-23T09:36:42;93423.56;;;34.67;29.90
6038;BME280;3047;42.600;23.470;2022-07-23T09:39:11;93422.41;;;34.84;28.20
6038;BME280;3047;42.600;23.470;2022-07-23T09:41:41;93421.41;;;35.00;29.34
6038;BME280;3047;42.600;23.470;2022-07-23T09:44:14;93423.56;;;35.11;29.56
6038;BME280;3047;42.600;23.470;2022-07-23T09:46:41;93413.28;;;35.31;28.98
6038;BME280;3047;42.600;23.470;2022-07-23T09:49:14;93409.72;;;35.39;29.71
6038;BME280;3047;42.600;23.470;2022-07-23T09:51:46;93416.78;;;35.53;29.27
6038;BME280;3047;42.600;23.470;2022-07-23T09:54:30;93407.53;;;35.57;28.07
6038;BME280;3047;42.600;23.470;2022-07-23T09:57:00;93410.84;;;35.66;26.82
6038;BME280;3047;42.600;23.470;2022-07-23T09:59:29;93413.19;;;35.61;27.67
6038;BME280;3047;42.600;23.470;2022-07-23T10:01:57;93353.78;;;35.24;26.58
6038;BME280;3047;42.600;23.470;2022-07-23T10:04:26;93402.66;;;35.54;26.64
6038;BME280;3047;42.600;23.470;2022-07-23T10:06:55;93315.44;;;35.08;26.07
6038;BME280;3047;42.600;23.470;2022-07-23T10:09:27;93400.69;;;35.63;27.31
6038;BME280;3047;42.600;23.470;2022-07-23T10:11:59;93390.66;;;35.73;25.76
6038;BME280;3047;42.600;23.470;2022-07-23T10:14:39;93316.91;;;35.32;25.94
6038;BME280;3047;42.600;23.470;2022-07-23T10:17:07;93340.88;;;35.65;26.89
6038;BME280;3047;42.600;23.470;2022-07-23T10:19:34;93388.41;;;35.91;26.41
6038;BME280;3047;42.600;23.470;2022-07-23T10:22:03;93391.94;;;35.99;25.69
6038;BME280;3047;42.600;23.470;2022-07-23T10:24:47;93394.63;;;36.05;27.03
6038;BME280;3047;42.600;23.470;2022-07-23T10:27:34;93391.22;;;36.11;27.03
6038;BME280;3047;42.600;23.470;2022-07-23T10:30:09;93386.22;;;36.17;25.84
6038;BME280;3047;42.600;23.470;2022-07-23T10:32:46;93380.22;;;36.29;25.52
6038;BME280;3047;42.600;23.470;2022-07-23T10:35:23;93325.53;;;35.97;24.83
6038;BME280;3047;42.600;23.470;2022-07-23T10:37:55;93379.63;;;36.34;23.38
6038;BME280;3047;42.600;23.470;2022-07-23T10:40:24;93254.25;;;35.50;24.00
6038;BME280;3047;42.600;23.470;2022-07-23T10:42:52;93378.69;;;36.42;23.43
6038;BME280;3047;42.600;23.470;2022-07-23T10:45:29;93376.72;;;36.50;24.15
6038;BME280;3047;42.600;23.470;2022-07-23T10:48:12;93371.72;;;36.62;25.36
6038;BME280;3047;42.600;23.470;2022-07-23T10:50:40;93354.97;;;36.63;25.70
6038;BME280;3047;42.600;23.470;2022-07-23T10:55:48;93367.19;;;36.91;25.30
6038;BME280;3047;42.600;23.470;2022-07-23T10:58:20;93366.13;;;36.78;23.14
6038;BME280;3047;42.600;23.470;2022-07-23T11:00:48;93362.94;;;36.83;23.85
6038;BME280;3047;42.600;23.470;2022-07-23T11:03:30;93350.81;;;36.88;22.86
6038;BME280;3047;42.600;23.470;2022-07-23T11:05:59;93342.28;;;36.86;21.82
6038;BME280;3047;42.600;23.470;2022-07-23T11:08:25;93348.13;;;36.82;20.34
6038;BME280;3047;42.600;23.470;2022-07-23T11:10:56;93343.16;;;36.94;23.22
6038;BME280;3047;42.600;23.470;2022-07-23T11:13:41;93339.09;;;36.98;22.18
6038;BME280;3047;42.600;23.470;2022-07-23T11:16:13;93296.06;;;36.71;21.80
6038;BME280;3047;42.600;23.470;2022-07-23T11:18:54;93324.53;;;36.95;19.91
6038;BME280;3047;42.600;23.470;2022-07-23T11:21:48;93337.31;;;37.05;18.07
6038;BME280;3047;42.600;23.470;2022-07-23T11:24:18;93240.31;;;36.54;19.43
6038;BME280;3047;42.600;23.470;2022-07-23T11:26:59;93337.53;;;37.23;20.41
6038;BME280;3047;42.600;23.470;2022-07-23T11:29:43;93338.00;;;37.33;19.97
6038;BME280;3047;42.600;23.470;2022-07-23T11:32:20;93152.16;;;36.23;20.06
6038;BME280;3047;42.600;23.470;2022-07-23T11:34:49;93329.69;;;37.36;19.54
6038;BME280;3047;42.600;23.470;2022-07-23T11:37:28;93295.00;;;37.26;19.21
6038;BME280;3047;42.600;23.470;2022-07-23T11:39:55;93313.06;;;37.36;18.32
6038;BME280;3047;42.600;23.470;2022-07-23T11:42:24;93317.91;;;37.26;17.26
6038;BME280;3047;42.600;23.470;2022-07-23T11:44:51;93277.75;;;37.04;17.42
6038;BME280;3047;42.600;23.470;2022-07-23T11:47:22;93312.63;;;37.12;19.43
6038;BME280;3047;42.600;23.470;2022-07-23T11:49:53;93313.81;;;37.10;19.49
6038;BME280;3047;42.600;23.470;2022-07-23T11:52:21;93317.06;;;37.05;20.42
6038;BME280;3047;42.600;23.470;2022-07-23T11:54:50;93307.72;;;37.03;21.55
6038;BME280;3047;42.600;23.470;2022-07-23T11:57:18;93309.09;;;36.92;22.62
6038;BME280;3047;42.600;23.470;2022-07-23T11:59:51;93304.84;;;36.91;21.69
6038;BME280;3047;42.600;23.470;2022-07-23T12:02:19;93294.69;;;36.88;20.61
6038;BME280;3047;42.600;23.470;2022-07-23T12:04:49;93276.00;;;36.63;20.73
6038;BME280;3047;42.600;23.470;2022-07-23T12:07:31;93298.31;;;36.80;20.02
6038;BME280;3047;42.600;23.470;2022-07-23T12:10:00;93301.53;;;36.76;20.11
6038;BME280;3047;42.600;23.470;2022-07-23T12:12:34;93286.31;;;36.64;19.79
6038;BME280;3047;42.600;23.470;2022-07-23T12:15:04;93274.88;;;36.44;19.49
6038;BME280;3047;42.600;23.470;2022-07-23T12:17:32;93295.97;;;36.51;19.38
6038;BME280;3047;42.600;23.470;2022-07-23T12:20:00;93296.38;;;36.48;20.30
6038;BME280;3047;42.600;23.470;2022-07-23T12:22:34;93234.19;;;35.99;19.72
6038;BME280;3047;42.600;23.470;2022-07-23T12:25:04;93209.94;;;35.75;19.37
6038;BME280;3047;42.600;23.470;2022-07-23T12:27:33;93282.78;;;36.09;19.23
6038;BME280;3047;42.600;23.470;2022-07-23T12:32:57;93290.13;;;35.92;19.46
6038;BME280;3047;42.600;23.470;2022-07-23T12:35:31;93286.88;;;35.90;17.97
6038;BME280;3047;42.600;23.470;2022-07-23T12:38:01;93282.59;;;35.83;17.84
6038;BME280;3047;42.600;23.470;2022-07-23T12:40:29;93275.13;;;35.86;20.00
6038;BME280;3047;42.600;23.470;2022-07-23T12:42:58;93274.47;;;35.78;19.28
6038;BME280;3047;42.600;23.470;2022-07-23T12:45:26;93269.38;;;35.76;19.41
6038;BME280;3047;42.600;23.470;2022-07-23T12:48:00;93263.66;;;35.66;19.45
6038;BME280;3047;42.600;23.470;2022-07-23T12:50:34;93260.38;;;35.57;20.42
6038;BME280;3047;42.600;23.470;2022-07-23T12:53:09;93261.56;;;35.55;20.27
6038;BME280;3047;42.600;23.470;2022-07-23T12:55:37;93257.47;;;35.52;21.23
6038;BME280;3047;42.600;23.470;2022-07-23T12:58:06;93254.16;;;35.43;20.54
6038;BME280;3047;42.600;23.470;2022-07-23T13:00:49;93257.16;;;35.40;20.48
6038;BME280;3047;42.600;23.470;2022-07-23T13:03:28;93260.34;;;35.36;19.37
6038;BME280;3047;42.600;23.470;2022-07-23T13:05:55;93264.50;;;35.24;19.17
6038;BME280;3047;42.600;23.470;2022-07-23T13:08:23;93245.81;;;35.12;19.08
6038;BME280;3047;42.600;23.470;2022-07-23T13:10:50;93262.81;;;35.16;16.84
6038;BME280;3047;42.600;23.470;2022-07-23T13:13:20;93258.09;;;35.05;19.79
6038;BME280;3047;42.600;23.470;2022-07-23T13:15:47;93259.47;;;35.01;17.99
6038;BME280;3047;42.600;23.470;2022-07-23T13:18:15;93239.47;;;34.85;18.83
6038;BME280;3047;42.600;23.470;2022-07-23T13:20:44;93249.66;;;34.94;18.24
6038;BME280;3047;42.600;23.470;2022-07-23T13:23:11;93251.97;;;34.83;17.63